Time;durP1;ratioP1;P1;durP2;ratioP2;P2;SDS_P1;SDS_P2;PMS_P1;PMS_P2;Temp;Humidity;BMP_temperature;BMP_pressure;BME280_temperature;BME280_humidity;BME280_pressure;Samples;Min_cycle;Max_cycle;Signal;HPM_P1;HPM_P2
2022/09/04 00:02:09;;;;;;;2.67;2.37;;;17.60;83.90;;;;;;5081580;28;20456;-44
2022/09/04 00:04:42;;;;;;;3.10;2.23;;;17.50;83.80;;;;;;5084931;28;20458;-43
2022/09/04 00:07:14;;;;;;;2.70;2.17;;;17.50;83.60;;;;;;5081749;28;20461;-43
2022/09/04 00:10:10;;;;;;;2.37;2.27;;;17.30;84.30;;;;;;5086896;28;20487;-43
2022/09/04 00:12:48;;;;;;;3.17;2.60;;;17.10;85.20;;;;;;5060960;28;21032;-43
2022/09/04 00:15:22;;;;;;;2.70;2.43;;;17.20;84.80;;;;;;5085013;28;21042;-43
2022/09/04 00:18:14;;;;;;;3.43;2.73;;;17.20;84.50;;;;;;5084652;28;20714;-43
2022/09/04 00:21:05;;;;;;;3.00;2.70;;;17.00;85.20;;;;;;5058987;28;20472;-43
2022/09/04 00:23:47;;;;;;;7.00;2.40;;;16.90;85.60;;;;;;5086768;28;20472;-43
2022/09/04 00:26:32;;;;;;;2.40;2.20;;;17.00;85.00;;;;;;5082553;28;20480;-44
2022/09/04 00:29:06;;;;;;;3.43;2.60;;;16.80;85.40;;;;;;5083634;28;20487;-43
2022/09/04 00:31:37;;;;;;;2.83;2.33;;;16.90;85.10;;;;;;5063039;28;21046;-43
2022/09/04 00:34:32;;;;;;;4.33;2.90;;;16.80;85.70;;;;;;5077691;28;20507;-43
2022/09/04 00:37:04;;;;;;;4.27;3.10;;;16.60;86.20;;;;;;5079937;28;20457;-43
2022/09/04 00:39:42;;;;;;;4.10;3.70;;;16.60;86.60;;;;;;5056827;28;20464;-43
2022/09/04 00:42:21;;;;;;;5.77;4.83;;;16.60;86.70;;;;;;5080694;28;20669;-43
2022/09/04 00:45:24;;;;;;;5.30;4.80;;;16.70;85.50;;;;;;5081537;28;20830;-43
2022/09/04 00:48:27;;;;;;;5.43;4.30;;;16.60;85.90;;;;;;5083873;28;20469;-43
2022/09/04 00:50:54;;;;;;;3.63;3.30;;;16.80;85.20;;;;;;5079858;28;20894;-43
2022/09/04 00:53:43;;;;;;;3.83;3.40;;;16.90;84.70;;;;;;5066039;28;20487;-43
2022/09/04 00:56:30;;;;;;;3.27;2.97;;;17.00;84.40;;;;;;5080829;28;20531;-43
2022/09/04 00:59:54;;;;;;;4.10;3.40;;;17.00;84.50;;;;;;5030484;28;20458;-43
2022/09/04 01:02:37;;;;;;;5.83;4.30;;;17.00;84.50;;;;;;5044347;28;20468;-43
2022/09/04 01:05:28;;;;;;;5.67;4.27;;;17.00;84.60;;;;;;5079618;28;20820;-43
2022/09/04 01:08:13;;;;;;;6.03;3.90;;;16.90;84.70;;;;;;5079746;28;20468;-43
2022/09/04 01:10:47;;;;;;;4.33;3.90;;;16.80;85.50;;;;;;5064577;28;20468;-43
2022/09/04 01:13:35;;;;;;;5.60;3.97;;;16.70;85.80;;;;;;5081832;28;20464;-43
2022/09/04 01:16:16;;;;;;;4.73;4.33;;;16.60;86.10;;;;;;5080372;28;20449;-43
2022/09/04 01:19:23;;;;;;;4.10;3.53;;;16.50;86.20;;;;;;5084044;28;20449;-43
2022/09/04 01:22:05;;;;;;;3.83;3.33;;;16.60;86.10;;;;;;5064316;28;20453;-43
2022/09/04 01:25:12;;;;;;;6.40;3.97;;;16.40;86.70;;;;;;5078748;28;20471;-43
2022/09/04 01:28:06;;;;;;;5.03;3.83;;;16.60;85.80;;;;;;5081368;28;20475;-43
2022/09/04 01:30:42;;;;;;;6.50;4.20;;;16.80;85.20;;;;;;5070808;28;20769;-43
2022/09/04 01:33:26;;;;;;;5.03;3.80;;;16.80;84.90;;;;;;5060572;28;20813;-43
2022/09/04 01:36:14;;;;;;;4.17;3.77;;;16.90;84.80;;;;;;5046781;28;20456;-43
2022/09/04 01:38:47;;;;;;;6.60;4.40;;;16.90;84.70;;;;;;5070220;28;20469;-43
2022/09/04 01:41:37;;;;;;;7.97;5.20;;;16.80;84.70;;;;;;5084790;28;20980;-43
2022/09/04 01:44:07;;;;;;;4.60;3.60;;;16.50;85.80;;;;;;5064575;28;21096;-43
2022/09/04 01:47:09;;;;;;;5.03;4.30;;;16.40;86.50;;;;;;5070769;28;20465;-43
2022/09/04 01:50:00;;;;;;;4.70;4.13;;;16.60;86.10;;;;;;5039572;28;20448;-43
2022/09/04 01:52:36;;;;;;;6.67;4.97;;;16.70;85.60;;;;;;5088663;28;20495;-43
2022/09/04 01:55:15;;;;;;;6.83;4.57;;;16.70;85.40;;;;;;5089724;28;20484;-43
2022/09/04 01:58:02;;;;;;;5.47;4.63;;;16.80;85.70;;;;;;5070155;28;20488;-43
2022/09/04 02:00:36;;;;;;;5.80;4.63;;;16.50;86.20;;;;;;5083798;28;20810;-43
2022/09/04 02:03:11;;;;;;;6.00;4.70;;;16.40;86.60;;;;;;5086492;28;20483;-43
2022/09/04 02:06:07;;;;;;;4.00;3.40;;;16.40;86.50;;;;;;5088131;28;20480;-43
2022/09/04 02:08:59;;;;;;;4.63;3.50;;;16.20;86.90;;;;;;5074718;28;20476;-43
2022/09/04 02:11:30;;;;;;;6.03;4.30;;;16.30;86.80;;;;;;5063783;28;20582;-43
2022/09/04 02:14:08;;;;;;;4.77;3.80;;;16.20;87.50;;;;;;5087575;28;20484;-43
2022/09/04 02:16:52;;;;;;;4.43;3.50;;;16.10;88.00;;;;;;5085695;28;20458;-43
2022/09/04 02:19:47;;;;;;;5.00;3.70;;;16.20;87.70;;;;;;5072095;28;20959;-43
2022/09/04 02:22:34;;;;;;;4.53;3.70;;;16.20;88.00;;;;;;5085700;28;20460;-43
2022/09/04 02:25:10;;;;;;;4.47;3.40;;;16.20;88.20;;;;;;5069402;28;20483;-43
2022/09/04 02:27:39;;;;;;;5.27;4.57;;;16.30;88.00;;;;;;5089540;28;20861;-44
2022/09/04 02:30:10;;;;;;;5.40;3.80;;;16.30;87.70;;;;;;5066056;28;20493;-44
2022/09/04 02:32:59;;;;;;;4.53;3.93;;;16.40;87.70;;;;;;5072247;28;20976;-43
2022/09/04 02:35:30;;;;;;;4.70;3.47;;;16.50;87.00;;;;;;5067705;28;20477;-43
2022/09/04 02:38:15;;;;;;;5.37;3.87;;;16.60;87.00;;;;;;5071647;28;20456;-44
2022/09/04 02:40:45;;;;;;;4.60;3.57;;;16.70;86.60;;;;;;5083674;28;20464;-44
2022/09/04 02:43:38;;;;;;;6.43;4.40;;;16.70;86.40;;;;;;5072369;28;20463;-43
2022/09/04 02:46:35;;;;;;;4.13;3.10;;;16.70;86.40;;;;;;5065780;28;20883;-43
2022/09/04 02:49:28;;;;;;;6.13;4.10;;;16.80;86.60;;;;;;5087814;28;20965;-43
2022/09/04 02:52:32;;;;;;;5.57;3.80;;;16.80;86.40;;;;;;5067459;28;20480;-44
2022/09/04 02:55:11;;;;;;;4.10;3.23;;;16.70;86.90;;;;;;5082690;28;20492;-44
2022/09/04 02:57:55;;;;;;;3.20;2.70;;;16.70;87.20;;;;;;5082911;28;20480;-43
2022/09/04 03:00:53;;;;;;;5.40;3.60;;;16.70;87.10;;;;;;5080690;28;20468;-43
2022/09/04 03:03:25;;;;;;;3.80;3.43;;;16.70;87.40;;;;;;5080698;28;21419;-43
2022/09/04 03:05:57;;;;;;;3.93;3.57;;;16.80;86.70;;;;;;5088017;28;20461;-44
2022/09/04 03:08:44;;;;;;;3.17;2.40;;;16.60;87.30;;;;;;5062076;28;20469;-44
2022/09/04 03:11:22;;;;;;;4.43;3.30;;;16.70;87.60;;;;;;5077714;28;20453;-44
2022/09/04 03:13:58;;;;;;;5.90;3.23;;;16.80;87.20;;;;;;5063848;28;20510;-44
2022/09/04 03:16:41;;;;;;;4.57;3.30;;;16.90;86.90;;;;;;5078868;28;20453;-44
2022/09/04 03:19:19;;;;;;;5.03;3.40;;;16.70;87.50;;;;;;5079956;28;20479;-45
2022/09/04 03:22:19;;;;;;;3.10;2.80;;;16.80;87.60;;;;;;5084648;28;20456;-44
2022/09/04 03:24:48;;;;;;;5.17;3.57;;;16.90;87.50;;;;;;5054541;28;20457;-44
2022/09/04 03:27:17;;;;;;;6.37;4.30;;;17.00;87.10;;;;;;5080045;28;20506;-44
2022/09/04 03:30:06;;;;;;;4.50;3.73;;;17.00;87.50;;;;;;5082985;28;20465;-44
2022/09/04 03:33:04;;;;;;;4.23;3.50;;;17.00;87.50;;;;;;5088150;28;20477;-44
2022/09/04 03:35:49;;;;;;;4.90;3.63;;;16.90;88.00;;;;;;5085730;28;20489;-45
2022/09/04 03:38:41;;;;;;;5.03;4.00;;;17.10;87.60;;;;;;5080522;28;20946;-44
2022/09/04 03:41:29;;;;;;;5.30;3.73;;;17.20;87.20;;;;;;5079761;28;20445;-44
2022/09/04 03:44:37;;;;;;;5.37;3.87;;;17.30;86.90;;;;;;5081666;28;20461;-44
2022/09/04 03:47:26;;;;;;;6.23;4.43;;;17.40;86.80;;;;;;5066987;28;20836;-44
2022/09/04 03:50:32;;;;;;;8.63;4.80;;;17.40;86.80;;;;;;5065317;28;20703;-44
2022/09/04 03:53:20;;;;;;;7.07;4.70;;;17.40;86.90;;;;;;5075935;28;20465;-44
2022/09/04 03:56:06;;;;;;;8.33;5.00;;;17.20;87.70;;;;;;5081326;28;20483;-44
2022/09/04 03:59:07;;;;;;;6.20;4.30;;;17.10;88.20;;;;;;5080486;28;20479;-44
2022/09/04 04:02:06;;;;;;;6.70;4.83;;;17.20;88.60;;;;;;5067752;28;20441;-44
2022/09/04 04:04:48;;;;;;;9.10;5.70;;;17.30;88.30;;;;;;5071549;28;20473;-44
2022/09/04 04:07:21;;;;;;;8.77;5.60;;;17.50;88.10;;;;;;5056369;28;20460;-44
2022/09/04 04:10:02;;;;;;;7.27;5.53;;;17.40;88.30;;;;;;5084848;28;20472;-44
2022/09/04 04:13:04;;;;;;;9.90;5.90;;;17.40;88.90;;;;;;5063672;28;20472;-44
2022/09/04 04:15:51;;;;;;;9.90;5.90;;;17.30;89.40;;;;;;5031130;28;21020;-44
2022/09/04 04:18:18;;;;;;;7.27;6.30;;;17.20;89.70;;;;;;5079496;28;20476;-44
2022/09/04 04:21:07;;;;;;;8.53;6.17;;;17.10;89.60;;;;;;5080359;28;20456;-44
2022/09/04 04:23:57;;;;;;;7.30;5.63;;;17.10;89.80;;;;;;5082387;28;20464;-44
2022/09/04 04:27:03;;;;;;;8.77;5.73;;;17.10;89.80;;;;;;5080843;28;20477;-44
2022/09/04 04:29:47;;;;;;;9.63;6.40;;;17.10;89.80;;;;;;5082442;28;20460;-44
2022/09/04 04:32:27;;;;;;;10.90;6.93;;;17.30;89.80;;;;;;5079864;28;20448;-44
2022/09/04 04:35:07;;;;;;;8.63;5.57;;;17.30;89.80;;;;;;5082156;28;20496;-44
2022/09/04 04:38:01;;;;;;;11.77;6.93;;;17.40;89.80;;;;;;5082540;28;20490;-44
2022/09/04 04:40:42;;;;;;;10.20;7.07;;;17.50;89.80;;;;;;5083098;28;20985;-44
2022/09/04 04:43:29;;;;;;;18.93;9.30;;;17.60;89.40;;;;;;5064494;28;20460;-44
2022/09/04 04:46:16;;;;;;;14.30;8.77;;;17.60;89.50;;;;;;5059820;28;20838;-44
2022/09/04 04:49:04;;;;;;;14.43;7.60;;;17.70;89.40;;;;;;5071316;28;20942;-44
2022/09/04 04:51:40;;;;;;;14.93;7.90;;;17.70;89.40;;;;;;5078365;28;20465;-44
2022/09/04 04:54:52;;;;;;;18.87;9.70;;;17.80;89.30;;;;;;5061498;28;20816;-44
2022/09/04 04:57:56;;;;;;;16.20;7.53;;;17.80;89.30;;;;;;5054053;28;20497;-44
2022/09/04 05:00:35;;;;;;;11.83;7.70;;;17.80;89.60;;;;;;5076710;28;20459;-45
2022/09/04 05:03:22;;;;;;;13.10;6.57;;;17.80;89.60;;;;;;5078123;28;20967;-44
2022/09/04 05:06:08;;;;;;;12.10;7.40;;;17.80;89.40;;;;;;5069727;28;20456;-44
2022/09/04 05:08:59;;;;;;;12.00;7.30;;;17.80;89.40;;;;;;5082681;28;20471;-44
2022/09/04 05:11:25;;;;;;;10.87;6.30;;;17.90;88.90;;;;;;5063723;28;20460;-43
2022/09/04 05:14:13;;;;;;;9.83;5.70;;;17.90;88.70;;;;;;5087878;28;20458;-44
2022/09/04 05:17:13;;;;;;;7.47;5.20;;;17.90;88.90;;;;;;5085406;28;20460;-43
2022/09/04 05:20:12;;;;;;;10.90;6.67;;;18.00;88.70;;;;;;5086636;28;20453;-43
2022/09/04 05:22:45;;;;;;;9.10;6.50;;;18.00;88.50;;;;;;5064215;28;21134;-44
2022/09/04 05:25:17;;;;;;;7.53;5.20;;;18.00;88.60;;;;;;5069216;28;20463;-43
2022/09/04 05:28:11;;;;;;;10.07;5.90;;;18.00;88.50;;;;;;5088606;28;20467;-43
2022/09/04 05:30:38;;;;;;;8.23;5.37;;;18.00;88.30;;;;;;5064194;28;20518;-44
2022/09/04 05:33:22;;;;;;;8.97;6.37;;;17.90;88.80;;;;;;5083995;28;20481;-44
2022/09/04 05:36:17;;;;;;;6.90;5.00;;;17.90;89.20;;;;;;5085823;28;20546;-44
2022/09/04 05:39:03;;;;;;;8.47;5.60;;;17.90;89.30;;;;;;5055544;28;20452;-44
2022/09/04 05:41:57;;;;;;;8.80;7.00;;;17.90;89.10;;;;;;5064688;28;21134;-45
2022/09/04 05:45:01;;;;;;;10.07;5.33;;;17.90;89.40;;;;;;5064969;28;20462;-45
2022/09/04 05:47:53;;;;;;;9.50;4.63;;;17.80;89.80;;;;;;5067385;28;20472;-45
2022/09/04 05:50:47;;;;;;;9.10;5.60;;;17.90;89.60;;;;;;5083594;28;20457;-45
2022/09/04 05:53:30;;;;;;;8.13;4.97;;;17.90;89.40;;;;;;5067906;28;20483;-45
2022/09/04 05:56:35;;;;;;;7.73;5.00;;;17.80;89.80;;;;;;5082663;28;20491;-45
2022/09/04 05:59:26;;;;;;;9.10;5.03;;;17.80;89.80;;;;;;5062718;28;20452;-45
2022/09/04 06:02:05;;;;;;;7.00;4.73;;;17.80;89.80;;;;;;5052736;28;20468;-44
2022/09/04 06:04:50;;;;;;;6.07;4.20;;;17.80;89.80;;;;;;5083304;28;20453;-44
2022/09/04 06:07:31;;;;;;;5.20;4.40;;;17.90;89.80;;;;;;5077508;28;20463;-44
2022/09/04 06:09:59;;;;;;;7.40;5.00;;;18.00;89.20;;;;;;5079605;28;20453;-44
2022/09/04 06:12:46;;;;;;;6.00;4.23;;;18.00;89.00;;;;;;5079481;28;20471;-45
2022/09/04 06:15:24;;;;;;;6.83;4.00;;;18.00;89.30;;;;;;5081359;28;20492;-44
2022/09/04 06:18:08;;;;;;;5.07;4.00;;;18.10;88.90;;;;;;5083358;28;20461;-44
2022/09/04 06:20:43;;;;;;;8.20;4.20;;;18.10;88.80;;;;;;5066197;28;20465;-44
2022/09/04 06:23:21;;;;;;;6.33;4.03;;;18.20;87.90;;;;;;5066028;28;20448;-45
2022/09/04 06:26:20;;;;;;;6.10;4.17;;;18.20;88.10;;;;;;5062903;28;20468;-44
2022/09/04 06:28:56;;;;;;;7.00;4.47;;;18.20;87.90;;;;;;5082465;28;20456;-45
2022/09/04 06:31:22;;;;;;;5.57;3.63;;;18.30;87.50;;;;;;5079926;28;20961;-44
2022/09/04 06:34:19;;;;;;;5.23;4.07;;;18.10;87.70;;;;;;5065353;28;20587;-44
2022/09/04 06:36:50;;;;;;;4.97;3.60;;;17.90;88.60;;;;;;5082792;28;20484;-44
2022/09/04 06:39:49;;;;;;;5.23;4.33;;;17.90;88.90;;;;;;5060073;28;21202;-44
2022/09/04 06:42:44;;;;;;;4.27;3.50;;;18.00;88.70;;;;;;5058156;28;20454;-45
2022/09/04 06:45:22;;;;;;;5.30;4.03;;;18.10;88.20;;;;;;5060228;28;20469;-45
2022/09/04 06:47:59;;;;;;;4.40;3.60;;;18.00;88.60;;;;;;5078081;28;20827;-45
2022/09/04 06:51:06;;;;;;;5.97;4.33;;;18.10;88.70;;;;;;5081881;28;20842;-44
2022/09/04 06:53:33;;;;;;;5.87;4.43;;;18.10;88.70;;;;;;5070844;28;20472;-45
2022/09/04 06:56:14;;;;;;;7.90;4.37;;;18.00;88.60;;;;;;5086042;28;20493;-44
2022/09/04 06:59:22;;;;;;;6.43;4.40;;;18.10;88.60;;;;;;5049341;28;20472;-45
2022/09/04 07:02:01;;;;;;;6.23;4.20;;;18.00;88.90;;;;;;5061467;28;20452;-45
2022/09/04 07:04:46;;;;;;;6.47;4.60;;;18.00;88.90;;;;;;5079403;28;20462;-45
2022/09/04 07:08:06;;;;;;;4.47;3.23;;;18.10;88.50;;;;;;5073548;28;20453;-45
2022/09/04 07:10:45;;;;;;;5.50;4.23;;;18.20;88.00;;;;;;4964707;28;20468;-44
2022/09/04 07:13:35;;;;;;;4.03;3.63;;;18.20;88.20;;;;;;5065032;28;20467;-45
2022/09/04 07:16:20;;;;;;;4.83;4.07;;;18.20;88.40;;;;;;5087643;28;20665;-44
2022/09/04 07:19:09;;;;;;;6.23;4.23;;;18.20;88.20;;;;;;5080744;28;20941;-46
2022/09/04 07:22:00;;;;;;;5.77;4.10;;;18.20;88.00;;;;;;5084298;28;20460;-45
2022/09/04 07:24:48;;;;;;;6.53;4.63;;;18.30;88.10;;;;;;5062141;28;20452;-45
2022/09/04 07:27:41;;;;;;;5.70;4.37;;;18.30;87.80;;;;;;5076711;28;20464;-45
2022/09/04 07:30:11;;;;;;;6.23;4.90;;;18.20;88.10;;;;;;5047368;28;20465;-45
2022/09/04 07:33:05;;;;;;;6.73;5.00;;;18.20;88.20;;;;;;5056124;28;20452;-45
2022/09/04 07:36:02;;;;;;;6.23;4.73;;;18.20;88.20;;;;;;5078107;28;20485;-45
2022/09/04 07:39:09;;;;;;;5.43;3.90;;;18.20;88.30;;;;;;5077353;28;20869;-44
2022/09/04 07:42:03;;;;;;;5.23;4.23;;;18.20;88.40;;;;;;5049434;28;20449;-44
2022/09/04 07:44:45;;;;;;;9.07;5.57;;;18.10;88.80;;;;;;5078997;28;20456;-44
2022/09/04 07:47:28;;;;;;;5.87;4.67;;;18.10;89.00;;;;;;5084428;28;20467;-43
2022/09/04 07:50:19;;;;;;;6.30;4.63;;;18.10;88.90;;;;;;5078139;28;20452;-43
2022/09/04 07:52:57;;;;;;;7.90;5.30;;;18.20;88.90;;;;;;5079430;28;20457;-44
2022/09/04 07:55:45;;;;;;;8.40;4.93;;;18.30;88.50;;;;;;5080359;28;20673;-44
2022/09/04 07:58:44;;;;;;;5.40;4.77;;;18.40;87.80;;;;;;5054795;28;20993;-44
2022/09/04 08:01:22;;;;;;;6.07;4.80;;;18.60;87.40;;;;;;5060763;28;20967;-44
2022/09/04 08:03:48;;;;;;;7.60;5.80;;;18.60;87.20;;;;;;5078121;28;20514;-44
2022/09/04 08:06:32;;;;;;;7.60;5.40;;;18.70;87.10;;;;;;5056904;28;20969;-44
2022/09/04 08:09:20;;;;;;;6.10;4.63;;;18.70;87.10;;;;;;5081631;28;20472;-44
2022/09/04 08:12:03;;;;;;;5.97;5.17;;;18.70;87.30;;;;;;5081550;28;20460;-44
2022/09/04 08:14:51;;;;;;;7.70;5.70;;;18.70;87.20;;;;;;5056111;28;20510;-44
2022/09/04 08:17:49;;;;;;;5.27;4.73;;;18.70;87.20;;;;;;5068845;28;20453;-44
2022/09/04 08:20:15;;;;;;;6.07;4.50;;;18.80;86.80;;;;;;5072956;28;20496;-44
2022/09/04 08:23:00;;;;;;;7.30;5.50;;;18.90;86.60;;;;;;5057739;28;20453;-44
2022/09/04 08:25:58;;;;;;;6.17;5.00;;;18.90;86.40;;;;;;5062121;28;20448;-44
2022/09/04 08:28:41;;;;;;;5.43;4.87;;;19.00;86.30;;;;;;5060120;28;20460;-44
2022/09/04 08:31:46;;;;;;;6.50;4.90;;;18.90;86.40;;;;;;5081567;28;20547;-43
2022/09/04 08:34:41;;;;;;;5.97;4.93;;;18.80;86.80;;;;;;5050227;28;20550;-45
2022/09/04 08:37:13;;;;;;;7.27;4.97;;;18.80;86.90;;;;;;5079849;28;20488;-44
2022/09/04 08:39:45;;;;;;;6.60;5.80;;;18.90;86.70;;;;;;5065350;28;20761;-43
2022/09/04 08:42:32;;;;;;;8.57;5.60;;;19.00;86.50;;;;;;5061644;28;20554;-44
2022/09/04 08:45:05;;;;;;;6.17;5.20;;;19.00;86.20;;;;;;5038206;28;20460;-44
2022/09/04 08:47:52;;;;;;;5.20;4.70;;;19.10;85.90;;;;;;5085924;28;20453;-44
2022/09/04 08:50:42;;;;;;;6.63;5.87;;;19.20;85.80;;;;;;5089557;28;20496;-44
2022/09/04 08:53:46;;;;;;;5.73;5.10;;;19.20;85.80;;;;;;5046703;28;20448;-44
2022/09/04 08:56:23;;;;;;;6.30;5.70;;;19.20;85.80;;;;;;5066366;28;20488;-44
2022/09/04 08:59:23;;;;;;;6.77;5.00;;;19.20;85.60;;;;;;5066703;28;20472;-44
2022/09/04 09:02:18;;;;;;;6.57;5.40;;;19.20;85.40;;;;;;5061973;28;20483;-44
2022/09/04 09:05:06;;;;;;;6.10;5.47;;;19.20;85.30;;;;;;5065235;28;20456;-44
2022/09/04 09:08:04;;;;;;;6.73;5.20;;;19.30;85.30;;;;;;5089032;28;20460;-43
2022/09/04 09:10:41;;;;;;;6.97;5.17;;;19.30;84.90;;;;;;5086097;28;20957;-44
2022/09/04 09:13:46;;;;;;;5.97;4.93;;;19.30;84.90;;;;;;5087244;28;20461;-43
2022/09/04 09:16:23;;;;;;;6.03;4.90;;;19.20;85.40;;;;;;5083850;28;20937;-43
2022/09/04 09:19:24;;;;;;;7.30;5.87;;;19.20;85.70;;;;;;5080156;28;20464;-43
2022/09/04 09:22:20;;;;;;;5.57;4.90;;;19.30;85.50;;;;;;5054677;28;20456;-45
2022/09/04 09:24:49;;;;;;;10.20;6.70;;;19.30;85.10;;;;;;5082801;28;20453;-45
2022/09/04 09:27:53;;;;;;;7.70;6.43;;;19.40;84.80;;;;;;5077222;28;20453;-44
2022/09/04 09:30:22;;;;;;;7.20;5.43;;;19.40;84.80;;;;;;5086025;28;21184;-43
2022/09/04 09:32:52;;;;;;;9.90;7.83;;;19.50;84.70;;;;;;5086807;28;20884;-43
2022/09/04 09:35:40;;;;;;;10.93;7.30;;;19.40;85.00;;;;;;5084251;28;20471;-43
2022/09/04 09:38:36;;;;;;;11.57;9.30;;;19.30;85.70;;;;;;5086161;28;20456;-43
2022/09/04 09:41:50;;;;;;;11.60;7.23;;;19.30;85.80;;;;;;5085577;28;20452;-43
2022/09/04 09:44:43;;;;;;;10.33;7.57;;;19.40;85.80;;;;;;5024844;28;20998;-43
2022/09/04 09:47:48;;;;;;;11.50;8.77;;;19.40;85.80;;;;;;5079461;28;20479;-43
2022/09/04 09:51:17;;;;;;;9.77;7.97;;;19.30;85.90;;;;;;5083461;28;20851;-43
2022/09/04 09:54:41;;;;;;;12.37;8.60;;;19.40;86.00;;;;;;4965824;28;20467;-43
2022/09/04 09:57:25;;;;;;;11.17;7.40;;;19.50;85.00;;;;;;4922598;28;20494;-45
2022/09/04 10:00:16;;;;;;;10.90;8.47;;;19.60;84.60;;;;;;5018443;28;20605;-44
2022/09/04 10:03:01;;;;;;;11.87;9.40;;;19.70;84.60;;;;;;5078373;28;20453;-45
2022/09/04 10:05:50;;;;;;;12.47;8.63;;;19.60;85.00;;;;;;5087708;28;21043;-44
2022/09/04 10:08:29;;;;;;;10.43;8.83;;;19.60;85.00;;;;;;5083076;28;20473;-44
2022/09/04 10:11:39;;;;;;;14.57;9.53;;;19.60;84.90;;;;;;5084335;28;20511;-44
2022/09/04 10:14:24;;;;;;;11.20;9.00;;;19.70;84.80;;;;;;5060711;28;20459;-44
2022/09/04 10:17:32;;;;;;;11.97;9.90;;;19.80;84.10;;;;;;5082995;28;20494;-44
2022/09/04 10:20:24;;;;;;;12.73;11.00;;;19.80;84.30;;;;;;5083180;28;20464;-44
2022/09/04 10:23:19;;;;;;;12.97;10.07;;;19.70;84.70;;;;;;5085544;28;20449;-44
2022/09/04 10:26:30;;;;;;;11.00;8.47;;;19.80;84.40;;;;;;5067585;28;20456;-44
2022/09/04 10:29:25;;;;;;;14.70;10.90;;;19.90;84.00;;;;;;4983204;28;20465;-44
2022/09/04 10:32:07;;;;;;;12.00;9.73;;;20.00;83.30;;;;;;4982469;28;20454;-44
2022/09/04 10:34:55;;;;;;;13.03;9.83;;;20.10;83.10;;;;;;5059523;28;20823;-44
2022/09/04 10:37:40;;;;;;;12.67;10.20;;;20.20;82.80;;;;;;5084891;28;20488;-44
2022/09/04 10:40:37;;;;;;;13.10;10.17;;;20.20;82.70;;;;;;5060300;28;20457;-44
2022/09/04 10:43:31;;;;;;;9.90;8.40;;;20.30;82.40;;;;;;5065842;28;20445;-44
2022/09/04 10:46:12;;;;;;;12.47;10.60;;;20.40;82.20;;;;;;5062283;28;22098;-44
2022/09/04 10:48:58;;;;;;;12.50;9.60;;;20.50;81.80;;;;;;5063269;28;20493;-44
2022/09/04 10:51:42;;;;;;;13.93;10.43;;;20.50;82.30;;;;;;5080238;28;20857;-44
2022/09/04 10:54:33;;;;;;;10.53;9.43;;;20.90;81.40;;;;;;5082538;28;20468;-45
2022/09/04 10:57:20;;;;;;;12.40;10.00;;;21.30;79.90;;;;;;5078880;28;20514;-44
2022/09/04 11:00:07;;;;;;;12.90;9.90;;;21.60;78.70;;;;;;5076917;28;20448;-44
2022/09/04 11:02:40;;;;;;;9.83;8.80;;;21.90;77.20;;;;;;5072154;28;20455;-44
2022/09/04 11:05:49;;;;;;;8.70;7.90;;;22.10;76.50;;;;;;5067942;28;20555;-45
2022/09/04 11:08:38;;;;;;;10.63;9.43;;;22.20;76.10;;;;;;5074786;28;20468;-45
2022/09/04 11:11:30;;;;;;;9.07;8.20;;;22.30;75.40;;;;;;5077943;28;20464;-45
2022/09/04 11:14:02;;;;;;;9.93;7.83;;;22.20;75.90;;;;;;5074171;28;20467;-45
2022/09/04 11:16:44;;;;;;;10.87;9.20;;;22.10;76.00;;;;;;5077096;28;20484;-45
2022/09/04 11:19:40;;;;;;;9.80;8.80;;;22.00;76.20;;;;;;5052232;28;20456;-45
2022/09/04 11:22:18;;;;;;;9.80;8.10;;;21.80;77.00;;;;;;5057544;28;20452;-45
2022/09/04 11:25:13;;;;;;;11.10;9.57;;;21.60;77.40;;;;;;5053371;28;23154;-45
2022/09/04 11:28:04;;;;;;;9.17;8.00;;;21.60;77.50;;;;;;5077576;28;20465;-44
2022/09/04 11:31:00;;;;;;;11.73;7.60;;;21.60;77.50;;;;;;5073173;28;20491;-44
2022/09/04 11:34:21;;;;;;;10.00;7.53;;;21.60;77.70;;;;;;5072916;28;20459;-44
2022/09/04 11:36:56;;;;;;;8.27;6.73;;;21.60;77.80;;;;;;4978196;28;21106;-44
2022/09/04 11:39:26;;;;;;;9.00;8.10;;;21.60;77.90;;;;;;5077462;28;20456;-44
2022/09/04 11:41:53;;;;;;;9.27;7.30;;;21.70;77.60;;;;;;5054811;28;20464;-44
2022/09/04 11:44:38;;;;;;;10.10;6.47;;;21.70;77.70;;;;;;5075619;28;20452;-44
2022/09/04 11:47:35;;;;;;;8.63;7.73;;;21.70;77.80;;;;;;5075998;28;21034;-44
2022/09/04 11:50:19;;;;;;;11.80;7.57;;;21.70;77.80;;;;;;5074627;28;20468;-45
2022/09/04 11:53:18;;;;;;;9.40;7.80;;;21.60;77.70;;;;;;5070761;28;20456;-45
2022/09/04 11:56:03;;;;;;;10.97;8.17;;;21.60;78.00;;;;;;5073536;28;20456;-45
2022/09/04 11:58:35;;;;;;;10.23;8.03;;;21.70;78.10;;;;;;5079173;28;20480;-44
2022/09/04 12:01:08;;;;;;;8.83;7.13;;;21.70;78.10;;;;;;5075000;28;20461;-44
2022/09/04 12:03:59;;;;;;;7.27;6.57;;;21.80;78.10;;;;;;5067651;28;20541;-44
2022/09/04 12:07:04;;;;;;;8.80;6.77;;;21.80;78.00;;;;;;5067600;28;20583;-44
2022/09/04 12:10:07;;;;;;;7.60;6.80;;;21.80;77.90;;;;;;5028174;28;20485;-44
2022/09/04 12:12:46;;;;;;;6.93;6.23;;;21.90;77.80;;;;;;5075401;28;20973;-45
2022/09/04 12:15:22;;;;;;;6.00;5.27;;;21.90;77.80;;;;;;5077457;28;20460;-45
2022/09/04 12:18:13;;;;;;;5.03;4.47;;;21.90;77.60;;;;;;5054863;28;21025;-45
2022/09/04 12:20:54;;;;;;;6.23;5.33;;;22.00;77.70;;;;;;5080865;28;20464;-45
2022/09/04 12:23:51;;;;;;;6.20;5.20;;;22.00;77.20;;;;;;5058879;28;20464;-45
2022/09/04 12:26:59;;;;;;;4.73;4.23;;;22.00;76.80;;;;;;5065310;28;20452;-45
2022/09/04 12:29:56;;;;;;;5.10;4.00;;;22.10;76.20;;;;;;5070681;28;20980;-45
2022/09/04 12:32:32;;;;;;;4.13;3.73;;;22.10;75.50;;;;;;5054609;28;20972;-45
2022/09/04 12:35:07;;;;;;;4.33;3.93;;;22.20;74.90;;;;;;5077039;28;21166;-45
2022/09/04 12:37:34;;;;;;;4.00;3.27;;;22.30;75.10;;;;;;5061977;28;20484;-45
2022/09/04 12:40:25;;;;;;;3.30;3.00;;;22.30;74.60;;;;;;5076805;28;20461;-45
2022/09/04 12:43:15;;;;;;;3.30;2.50;;;22.30;73.70;;;;;;5056006;28;20455;-45
2022/09/04 12:45:47;;;;;;;2.63;2.43;;;22.30;72.90;;;;;;5063464;28;20808;-45
2022/09/04 12:48:32;;;;;;;2.77;2.57;;;22.40;72.40;;;;;;5057312;28;21038;-45
2022/09/04 12:51:17;;;;;;;3.40;3.10;;;22.50;72.40;;;;;;5060854;28;20457;-45
2022/09/04 12:54:22;;;;;;;3.00;2.80;;;22.50;72.40;;;;;;5072196;28;20459;-45
2022/09/04 12:57:15;;;;;;;2.70;2.50;;;22.60;72.10;;;;;;5070480;28;20488;-46
2022/09/04 13:00:04;;;;;;;2.40;2.20;;;22.60;71.30;;;;;;5028360;28;20463;-45
2022/09/04 13:02:48;;;;;;;2.27;2.07;;;22.60;70.40;;;;;;5077984;28;20491;-45
2022/09/04 13:05:33;;;;;;;2.67;2.47;;;22.70;69.80;;;;;;5064199;28;20456;-45
2022/09/04 13:08:17;;;;;;;3.50;3.13;;;22.70;70.40;;;;;;5078004;28;20506;-45
2022/09/04 13:10:59;;;;;;;2.10;2.00;;;22.70;69.30;;;;;;5076391;28;20456;-46
2022/09/04 13:13:50;;;;;;;2.67;2.40;;;22.80;69.30;;;;;;5082251;28;20838;-46
2022/09/04 13:16:37;;;;;;;2.37;2.23;;;22.90;69.50;;;;;;5072205;28;20488;-46
2022/09/04 13:19:15;;;;;;;3.60;2.67;;;22.90;69.50;;;;;;5072084;28;20988;-45
2022/09/04 13:21:47;;;;;;;2.23;2.03;;;22.90;68.20;;;;;;5060770;28;20444;-45
2022/09/04 13:24:50;;;;;;;4.50;2.73;;;23.00;68.20;;;;;;5080309;28;20993;-45
2022/09/04 13:27:49;;;;;;;3.20;2.53;;;23.10;67.90;;;;;;5073063;28;20468;-45
2022/09/04 13:30:20;;;;;;;3.03;2.20;;;23.20;68.20;;;;;;5071669;28;20456;-45
2022/09/04 13:33:18;;;;;;;2.50;1.80;;;23.20;68.40;;;;;;5079056;28;20472;-45
2022/09/04 13:35:48;;;;;;;2.70;2.50;;;23.20;68.40;;;;;;5081294;28;20543;-46
2022/09/04 13:38:15;;;;;;;3.50;2.70;;;23.30;67.90;;;;;;5077966;28;20917;-46
2022/09/04 13:41:03;;;;;;;3.07;2.73;;;23.30;67.80;;;;;;5082185;28;20471;-46
2022/09/04 13:43:59;;;;;;;2.50;2.30;;;23.30;68.00;;;;;;5084997;28;20550;-46
2022/09/04 13:46:39;;;;;;;2.57;2.47;;;23.40;67.50;;;;;;5083091;28;20964;-45
2022/09/04 13:49:14;;;;;;;2.60;2.40;;;23.40;67.30;;;;;;5087810;28;20916;-46
2022/09/04 13:51:46;;;;;;;2.33;2.07;;;23.40;67.10;;;;;;5082896;28;20459;-46
2022/09/04 13:54:24;;;;;;;2.17;1.97;;;23.40;66.90;;;;;;5064710;28;20465;-46
2022/09/04 13:57:12;;;;;;;2.83;2.10;;;23.40;67.20;;;;;;5083338;28;20859;-46
2022/09/04 13:59:40;;;;;;;3.00;2.70;;;23.50;66.90;;;;;;5087242;28;20457;-46
2022/09/04 14:02:11;;;;;;;2.30;2.10;;;23.50;66.70;;;;;;5081774;28;20448;-46
2022/09/04 14:04:43;;;;;;;2.70;2.40;;;23.50;66.60;;;;;;5069259;28;20492;-46
2022/09/04 14:07:28;;;;;;;2.53;2.00;;;23.50;66.50;;;;;;5062688;28;20475;-46
2022/09/04 14:10:00;;;;;;;2.57;2.37;;;23.60;66.20;;;;;;5081776;28;21015;-46
2022/09/04 14:12:38;;;;;;;2.80;2.60;;;23.60;65.70;;;;;;5084929;28;20471;-46
2022/09/04 14:15:31;;;;;;;2.20;2.00;;;23.70;66.30;;;;;;5085551;28;20940;-46
2022/09/04 14:18:26;;;;;;;2.50;2.30;;;23.80;66.30;;;;;;5063900;28;20549;-46
2022/09/04 14:21:02;;;;;;;2.90;2.60;;;23.80;66.10;;;;;;5062628;28;20479;-46
2022/09/04 14:23:40;;;;;;;2.90;2.60;;;23.80;65.90;;;;;;5068995;28;20459;-46
2022/09/04 14:26:18;;;;;;;2.47;2.30;;;23.80;65.70;;;;;;5086519;28;20462;-44